Time;durP1;ratioP1;P1;durP2;ratioP2;P2;SDS_P1;SDS_P2;PMS_P1;PMS_P2;Temp;Humidity;BMP_temperature;BMP_pressure;BME280_temperature;BME280_humidity;BME280_pressure;Samples;Min_cycle;Max_cycle;Signal;HPM_P1;HPM_P2
2022/05/11 00:01:19;;;;;;;22.00;6.60;;;;;;;9.82;34.16;99418.65;25104;1315;3027329;-63
2022/05/11 00:03:48;;;;;;;23.30;6.60;;;;;;;9.87;33.93;99417.48;25045;1315;3048857;-66
2022/05/11 00:06:17;;;;;;;13.10;4.30;;;;;;;9.83;33.89;99416.98;25124;1315;3027196;-65
2022/05/11 00:08:46;;;;;;;19.50;6.00;;;;;;;9.77;33.94;99415.80;25104;1315;3056493;-66
2022/05/11 00:11:15;;;;;;;24.30;6.00;;;;;;;9.79;34.12;99420.23;25074;1315;3026427;-67
2022/05/11 00:13:45;;;;;;;26.80;6.20;;;;;;;9.75;34.14;99420.61;25070;1315;3026506;-62
2022/05/11 00:16:15;;;;;;;19.50;6.10;;;;;;;9.71;34.42;99419.95;25101;1315;3026530;-62
2022/05/11 00:18:44;;;;;;;23.00;6.10;;;;;;;9.67;34.56;99421.09;25038;1315;3051963;-61
2022/05/11 00:21:13;;;;;;;32.70;7.20;;;;;;;9.64;34.54;99423.36;25147;1315;3025856;-64
2022/05/11 00:23:42;;;;;;;23.80;6.40;;;;;;;9.65;34.65;99427.16;25077;1315;3057623;-64
2022/05/11 00:26:12;;;;;;;20.40;6.10;;;;;;;9.54;34.81;99426.36;25039;1315;3026213;-65
2022/05/11 00:28:41;;;;;;;26.40;8.40;;;;;;;9.55;34.48;99422.98;25088;1315;3028275;-63
2022/05/11 00:31:10;;;;;;;45.00;11.50;;;;;;;9.57;34.38;99421.11;25034;1315;3056427;-63
2022/05/11 00:33:40;;;;;;;54.20;16.10;;;;;;;9.51;34.47;99419.20;25021;1315;3026854;-64
2022/05/11 00:36:11;;;;;;;49.10;15.10;;;;;;;9.47;34.51;99417.49;25120;1315;3026360;-64
2022/05/11 00:38:41;;;;;;;32.20;10.10;;;;;;;9.47;34.35;99417.51;25035;1315;3058799;-63
2022/05/11 00:41:10;;;;;;;50.70;15.20;;;;;;;9.49;34.14;99418.26;25049;1315;3026491;-67
2022/05/11 00:43:41;;;;;;;73.40;23.60;;;;;;;9.44;34.34;99416.99;25124;1315;3028373;-64
2022/05/11 00:46:20;;;;;;;54.60;18.10;;;;;;;9.44;34.24;99420.81;25155;1315;3056863;-63
2022/05/11 00:51:49;;;;;;;30.90;12.20;;;;;;;9.30;34.63;99418.48;25121;1315;3055334;-66
2022/05/11 00:54:19;;;;;;;25.60;11.20;;;;;;;9.23;34.70;99415.13;25042;1315;3051997;-63
2022/05/11 00:56:51;;;;;;;29.60;11.80;;;;;;;9.26;34.52;99420.92;25043;1315;3026444;-64
2022/05/11 00:59:24;;;;;;;32.40;14.20;;;;;;;9.22;34.47;99416.44;25111;1315;3026941;-65
2022/05/11 01:01:53;;;;;;;40.00;17.60;;;;;;;9.19;34.72;99417.50;25140;1315;3027177;-64
2022/05/11 01:04:23;;;;;;;59.30;21.80;;;;;;;9.17;34.79;99414.99;25037;1315;3028299;-63
2022/05/11 01:06:52;;;;;;;97.70;29.30;;;;;;;9.12;35.00;99414.57;25043;1315;3051431;-63
2022/05/11 01:09:21;;;;;;;56.20;23.30;;;;;;;9.08;34.99;99414.73;25144;1315;3026158;-64
2022/05/11 01:11:51;;;;;;;61.90;26.30;;;;;;;9.05;34.93;99412.80;25021;1315;3070545;-64
2022/05/11 01:14:22;;;;;;;43.70;18.50;;;;;;;9.09;34.94;99410.89;25040;1315;3026732;-66
2022/05/11 01:16:51;;;;;;;35.00;15.20;;;;;;;9.05;34.65;99411.08;25067;1315;3027485;-65
2022/05/11 01:19:25;;;;;;;30.60;14.70;;;;;;;9.06;34.59;99410.50;25094;1315;3026174;-64
2022/05/11 01:21:58;;;;;;;44.80;16.90;;;;;;;9.07;34.28;99407.31;25043;1315;3051230;-62
2022/05/11 01:24:27;;;;;;;71.60;21.80;;;;;;;9.11;34.01;99402.91;25077;1315;3052152;-64
2022/05/11 01:26:56;;;;;;;37.80;13.00;;;;;;;9.07;34.26;99403.80;25068;1315;3026549;-63
2022/05/11 01:29:25;;;;;;;13.60;5.80;;;;;;;9.04;34.26;99402.76;25074;1315;3050493;-64
2022/05/11 01:31:55;;;;;;;9.30;3.80;;;;;;;8.97;34.26;99401.91;25099;1315;3026759;-65
2022/05/11 01:34:24;;;;;;;8.40;3.00;;;;;;;8.98;34.13;99401.36;25042;1315;3026404;-66
2022/05/11 01:36:55;;;;;;;11.00;3.20;;;;;;;8.91;34.08;99403.11;25025;1315;3051641;-65
2022/05/11 01:39:24;;;;;;;9.20;2.40;;;;;;;8.97;34.01;99390.91;25050;1318;3026453;-64
2022/05/11 01:41:54;;;;;;;10.60;2.60;;;;;;;8.99;33.73;99392.56;25107;1315;3026865;-63
2022/05/11 01:44:23;;;;;;;12.70;2.40;;;;;;;8.99;33.49;99390.13;25074;1315;3048328;-63
2022/05/11 01:46:54;;;;;;;5.50;2.70;;;;;;;8.95;33.42;99387.20;25037;1315;3026971;-62
2022/05/11 01:49:24;;;;;;;7.00;2.50;;;;;;;9.00;33.44;99387.94;25132;1315;3071023;-63
2022/05/11 01:51:53;;;;;;;8.70;2.50;;;;;;;9.07;33.20;99385.13;25139;1315;3027028;-63
2022/05/11 01:54:23;;;;;;;5.70;2.00;;;;;;;9.07;33.18;99384.61;25060;1315;3028031;-64
2022/05/11 01:56:52;;;;;;;11.10;2.10;;;;;;;9.06;33.15;99381.50;25045;1315;3026270;-66
2022/05/11 01:59:21;;;;;;;9.50;2.60;;;;;;;9.07;33.08;99384.42;25088;1315;3027054;-64
2022/05/11 02:01:50;;;;;;;8.30;2.90;;;;;;;9.10;32.96;99381.84;25041;1315;3054877;-64
2022/05/11 02:09:56;;;;;;;14.30;2.50;;;;;;;9.06;32.81;99380.45;25113;1315;3055415;-63
2022/05/11 02:12:25;;;;;;;7.10;2.60;;;;;;;9.07;33.00;99381.99;25119;1315;3026471;-63
2022/05/11 02:14:54;;;;;;;5.70;2.10;;;;;;;9.12;32.80;99381.02;25208;1315;3051618;-60
2022/05/11 02:17:23;;;;;;;12.10;2.40;;;;;;;9.13;32.79;99380.77;25654;1315;3029588;-61
2022/05/11 02:19:52;;;;;;;14.00;2.70;;;;;;;9.09;33.12;99376.46;25624;1314;3068015;-60
2022/05/11 02:22:21;;;;;;;14.50;2.80;;;;;;;9.10;33.02;99378.30;25601;1315;3026563;-63
2022/05/11 02:24:50;;;;;;;8.20;2.20;;;;;;;9.11;33.00;99370.91;25065;1315;3051062;-63
2022/05/11 02:27:19;;;;;;;6.60;2.10;;;;;;;9.10;32.83;99367.14;25140;1318;3028383;-64
2022/05/11 02:29:49;;;;;;;6.50;2.50;;;;;;;9.13;32.68;99368.54;25118;1315;3055654;-65
2022/05/11 02:32:18;;;;;;;11.00;3.40;;;;;;;9.13;32.77;99366.27;25063;1315;3026856;-61
2022/05/11 02:37:35;;;;;;;6.50;2.60;;;;;;;9.19;32.77;99370.30;25125;1315;3056365;-66
2022/05/11 02:40:08;;;;;;;12.60;2.60;;;;;;;9.23;32.67;99366.59;25119;1315;3026900;-63
2022/05/11 02:42:37;;;;;;;7.00;2.40;;;;;;;9.19;32.73;99369.23;25094;1315;3052433;-65
2022/05/11 02:45:06;;;;;;;11.20;2.70;;;;;;;9.22;32.48;99366.12;25108;1315;3026006;-64
2022/05/11 02:47:36;;;;;;;8.70;2.80;;;;;;;9.25;32.73;99370.66;25068;1315;3059370;-63
2022/05/11 02:50:06;;;;;;;8.90;2.60;;;;;;;9.27;32.65;99367.23;25069;1318;3026204;-62
2022/05/11 02:52:35;;;;;;;10.10;2.50;;;;;;;9.29;32.69;99369.42;25133;1318;3027611;-65
2022/05/11 02:55:04;;;;;;;8.40;2.30;;;;;;;9.32;32.57;99367.67;25047;1315;3026579;-66
2022/05/11 02:57:34;;;;;;;9.00;2.80;;;;;;;9.34;32.55;99366.49;25080;1315;3049740;-63
2022/05/11 03:00:05;;;;;;;9.10;2.90;;;;;;;9.29;32.73;99373.42;25088;1315;3026240;-67
2022/05/11 03:02:34;;;;;;;10.50;3.00;;;;;;;9.37;32.50;99369.80;25146;1315;3056935;-66
2022/05/11 03:05:04;;;;;;;15.20;4.00;;;;;;;9.45;32.34;99368.15;25091;1315;3026467;-66
2022/05/11 03:07:35;;;;;;;13.30;3.00;;;;;;;9.44;32.46;99371.85;25126;1315;3052533;-65
2022/05/11 03:10:05;;;;;;;15.70;2.90;;;;;;;9.46;32.84;99370.88;25084;1315;3028786;-63
2022/05/11 03:12:34;;;;;;;13.50;3.30;;;;;;;9.46;33.27;99371.20;25035;1318;3055285;-65
2022/05/11 03:15:04;;;;;;;11.50;3.80;;;;;;;9.52;33.69;99374.19;25130;1318;3027263;-63
2022/05/11 03:17:34;;;;;;;9.30;3.00;;;;;;;9.55;34.21;99374.36;25152;1315;3025669;-65
2022/05/11 03:20:07;;;;;;;11.20;3.00;;;;;;;9.62;34.50;99376.96;25072;1318;3026504;-67
2022/05/11 03:22:36;;;;;;;11.30;3.10;;;;;;;9.67;34.88;99381.23;25074;1315;3052267;-64
2022/05/11 03:25:07;;;;;;;18.50;4.10;;;;;;;9.75;34.91;99379.54;25102;1315;3026457;-64
2022/05/11 03:27:37;;;;;;;12.90;3.90;;;;;;;9.82;34.88;99380.67;25167;1315;3051873;-63
2022/05/11 03:30:07;;;;;;;19.90;4.80;;;;;;;9.87;35.63;99381.96;25077;1315;3026727;-65
2022/05/11 03:35:24;;;;;;;11.10;4.60;;;;;;;9.88;38.45;99392.60;25044;1315;3050874;-63
2022/05/11 03:37:53;;;;;;;21.10;5.30;;;;;;;9.87;39.73;99389.80;25091;1314;3026710;-66
2022/05/11 03:40:22;;;;;;;16.80;4.70;;;;;;;9.98;39.56;99391.85;25119;1313;3026441;-65
2022/05/11 03:42:53;;;;;;;24.40;6.20;;;;;;;10.06;39.09;99391.31;25094;1315;3051050;-63
2022/05/11 03:45:24;;;;;;;18.50;5.50;;;;;;;10.13;39.22;99391.13;25141;1315;3026197;-65
2022/05/11 03:47:53;;;;;;;19.90;5.10;;;;;;;10.16;39.27;99392.86;25139;1315;3055082;-66
2022/05/11 03:50:22;;;;;;;25.70;7.00;;;;;;;10.22;38.83;99393.70;25059;1315;3027062;-62
2022/05/11 03:52:53;;;;;;;21.90;6.50;;;;;;;10.23;38.41;99392.98;25060;1315;3027069;-64
2022/05/11 03:55:22;;;;;;;26.30;6.80;;;;;;;10.29;38.36;99392.25;25078;1315;3026850;-66
2022/05/11 03:57:51;;;;;;;26.80;6.60;;;;;;;10.32;38.00;99395.54;25103;1315;3026175;-65
2022/05/11 04:00:23;;;;;;;22.10;6.00;;;;;;;10.30;38.29;99400.56;25083;1315;3026414;-69
2022/05/11 04:02:53;;;;;;;31.90;7.10;;;;;;;10.32;38.32;99402.22;25033;1315;3028352;-63
2022/05/11 04:05:22;;;;;;;29.90;7.50;;;;;;;10.33;38.62;99404.81;25131;1314;3027481;-66
2022/05/11 04:07:52;;;;;;;25.50;7.00;;;;;;;10.48;37.87;99403.73;25132;1315;3027965;-63
2022/05/11 04:10:20;;;;;;;41.30;7.80;;;;;;;10.53;37.08;99407.62;25069;1315;3026635;-67
2022/05/11 04:12:49;;;;;;;39.00;10.20;;;;;;;10.56;36.45;99410.42;25088;1315;3054362;-68
2022/05/11 04:15:19;;;;;;;47.40;9.30;;;;;;;10.47;35.69;99404.69;25086;1315;3028467;-64
2022/05/11 04:17:49;;;;;;;46.00;10.40;;;;;;;10.54;35.27;99405.13;25074;1315;3026600;-65
2022/05/11 04:20:20;;;;;;;54.90;10.70;;;;;;;10.65;34.97;99400.75;25106;1315;3026165;-65
2022/05/11 04:22:50;;;;;;;37.80;9.70;;;;;;;10.70;34.69;99405.71;25089;1315;3026847;-69
2022/05/11 04:25:20;;;;;;;40.40;8.60;;;;;;;10.76;34.23;99401.50;25048;1315;3026726;-67
2022/05/11 04:27:49;;;;;;;32.50;7.90;;;;;;;10.76;33.86;99408.84;25062;1315;3026770;-67
2022/05/11 04:30:20;;;;;;;30.10;8.10;;;;;;;10.85;33.75;99408.42;25135;1315;3026465;-62
2022/05/11 04:32:49;;;;;;;30.70;6.10;;;;;;;10.94;33.30;99409.45;25087;1312;3070859;-65
2022/05/11 04:35:19;;;;;;;21.90;6.60;;;;;;;11.02;33.20;99404.79;25117;1315;3026638;-66
2022/05/11 04:37:48;;;;;;;38.30;6.60;;;;;;;11.06;33.31;99408.91;25060;1315;3053227;-66
2022/05/11 04:40:19;;;;;;;19.60;5.10;;;;;;;11.05;33.15;99409.67;25090;1315;3029891;-62
2022/05/11 04:42:49;;;;;;;21.20;4.80;;;;;;;11.15;32.96;99409.05;25089;1315;3026024;-64
2022/05/11 04:45:19;;;;;;;18.90;4.20;;;;;;;11.09;32.48;99415.73;25127;1313;3026507;-67
2022/05/11 04:47:47;;;;;;;20.20;4.90;;;;;;;11.07;32.17;99418.80;25094;1315;3026976;-63
2022/05/11 04:50:17;;;;;;;18.20;4.30;;;;;;;11.15;32.28;99411.83;25080;1315;3050340;-65
2022/05/11 04:52:46;;;;;;;12.80;3.80;;;;;;;11.30;32.23;99408.77;25169;1315;3026612;-65
2022/05/11 04:55:15;;;;;;;14.40;3.70;;;;;;;11.47;32.09;99407.17;25101;1315;3070955;-66
2022/05/11 04:57:44;;;;;;;12.80;3.70;;;;;;;11.50;31.62;99410.33;25174;1315;3028453;-66
2022/05/11 05:00:14;;;;;;;18.50;3.70;;;;;;;11.50;31.92;99408.71;25105;1317;3053730;-65
2022/05/11 05:02:43;;;;;;;8.00;2.80;;;;;;;11.66;31.81;99407.81;25094;1315;3027362;-67
2022/05/11 05:05:12;;;;;;;15.30;4.10;;;;;;;11.78;31.88;99409.16;25063;1315;3028465;-65
2022/05/11 05:07:42;;;;;;;20.80;3.30;;;;;;;11.81;31.48;99413.73;25127;1315;3053886;-67
2022/05/11 05:10:12;;;;;;;7.50;3.10;;;;;;;11.87;31.81;99414.02;25088;1315;3026455;-64
2022/05/11 05:12:42;;;;;;;13.20;3.90;;;;;;;11.92;31.60;99412.80;25122;1315;3053069;-64
2022/05/11 05:15:11;;;;;;;6.20;2.50;;;;;;;11.94;31.47;99418.81;25067;1315;3027040;-64
2022/05/11 05:17:41;;;;;;;20.10;3.00;;;;;;;11.84;31.92;99416.16;25131;1315;3026648;-67
2022/05/11 05:20:11;;;;;;;14.70;2.70;;;;;;;11.89;32.01;99418.10;25143;1314;3026832;-66
2022/05/11 05:22:41;;;;;;;10.80;3.30;;;;;;;11.96;31.96;99412.54;25152;1315;3050645;-64
2022/05/11 05:25:10;;;;;;;15.60;3.00;;;;;;;12.03;32.16;99417.17;25055;1315;3026930;-64
2022/05/11 05:27:39;;;;;;;7.70;3.00;;;;;;;11.99;32.22;99415.20;25039;1315;3054894;-66
2022/05/11 05:32:57;;;;;;;7.10;2.80;;;;;;;12.28;32.06;99410.20;25106;1315;3071062;-65
2022/05/11 05:35:26;;;;;;;7.70;3.00;;;;;;;12.32;31.68;99409.61;25058;1315;3028000;-65
2022/05/11 05:37:55;;;;;;;13.90;3.00;;;;;;;12.54;31.67;99403.74;25140;1315;3052619;-63
2022/05/11 05:40:24;;;;;;;7.00;2.30;;;;;;;12.54;31.24;99411.23;25046;1315;3026498;-69
2022/05/11 05:42:53;;;;;;;12.60;2.90;;;;;;;12.37;31.18;99412.19;25132;1315;3026836;-62
2022/05/11 05:45:22;;;;;;;8.50;2.20;;;;;;;12.48;31.18;99416.08;25163;1315;3026784;-65
2022/05/11 05:47:52;;;;;;;12.20;3.40;;;;;;;12.47;31.06;99417.36;25064;1315;3070135;-68
2022/05/11 05:50:21;;;;;;;11.00;2.50;;;;;;;12.33;31.27;99422.16;25117;1315;3026546;-66
2022/05/11 05:52:52;;;;;;;12.10;3.80;;;;;;;12.27;31.36;99430.86;24928;1315;3302373;-63
2022/05/11 05:55:21;;;;;;;16.10;3.90;;;;;;;12.33;31.44;99418.48;25107;1315;3027423;-64
2022/05/11 05:57:50;;;;;;;19.90;4.50;;;;;;;12.43;31.25;99409.89;25106;1315;3026432;-69
2022/05/11 06:00:20;;;;;;;18.70;4.50;;;;;;;12.44;30.92;99416.52;25136;1315;3050391;-67
2022/05/11 06:02:49;;;;;;;24.60;5.00;;;;;;;12.39;31.29;99414.73;25195;1315;3026478;-65
2022/05/11 06:05:18;;;;;;;18.10;4.50;;;;;;;12.35;31.48;99420.46;25186;1315;3026968;-64
2022/05/11 06:07:48;;;;;;;25.50;5.70;;;;;;;12.47;31.26;99414.36;25161;1315;3026791;-66
2022/05/11 06:10:21;;;;;;;16.60;3.90;;;;;;;12.55;31.08;99419.25;25179;1315;3026828;-66
2022/05/11 06:12:51;;;;;;;12.60;3.50;;;;;;;12.60;31.05;99421.04;25139;1315;3026722;-66
2022/05/11 06:15:20;;;;;;;12.20;3.30;;;;;;;12.63;31.16;99430.13;25176;1315;3027071;-67
2022/05/11 06:17:49;;;;;;;12.60;2.70;;;;;;;12.47;31.33;99421.19;25137;1315;3027915;-66
2022/05/11 06:20:18;;;;;;;14.60;5.10;;;;;;;12.57;31.57;99423.71;25205;1315;3055272;-65
2022/05/11 06:22:48;;;;;;;16.30;5.20;;;;;;;12.56;31.91;99421.31;25109;1315;3029470;-65
2022/05/11 06:25:18;;;;;;;17.90;4.40;;;;;;;12.78;32.00;99420.84;25137;1315;3026399;-69
2022/05/11 06:27:48;;;;;;;13.60;5.20;;;;;;;12.95;31.91;99422.77;25181;1315;3057451;-65
2022/05/11 06:30:17;;;;;;;15.90;3.90;;;;;;;13.12;31.84;99419.85;25090;1315;3028337;-65
2022/05/11 06:32:46;;;;;;;13.80;3.70;;;;;;;13.20;31.77;99422.59;25084;1315;3052262;-66
2022/05/11 06:35:15;;;;;;;12.00;3.20;;;;;;;13.18;32.23;99431.34;25108;1315;3026508;-67
2022/05/11 06:37:44;;;;;;;17.90;3.60;;;;;;;13.11;32.32;99433.25;25096;1315;3028293;-66
2022/05/11 06:40:14;;;;;;;13.80;2.90;;;;;;;12.99;32.79;99430.92;25127;1315;3054777;-67
2022/05/11 06:42:43;;;;;;;6.60;2.70;;;;;;;13.03;32.70;99425.93;25095;1315;3027575;-63
2022/05/11 06:45:12;;;;;;;12.70;2.70;;;;;;;13.04;32.89;99423.36;25158;1315;3027897;-67
2022/05/11 06:47:41;;;;;;;15.30;3.80;;;;;;;13.04;33.15;99429.89;25116;1315;3051973;-66
2022/05/11 06:50:12;;;;;;;13.80;2.90;;;;;;;13.06;32.97;99415.69;25161;1315;3026163;-64
2022/05/11 06:52:41;;;;;;;22.30;3.80;;;;;;;13.05;32.90;99423.16;25127;1315;3051548;-66
2022/05/11 07:00:52;;;;;;;12.10;3.70;;;;;;;12.96;32.00;99414.95;25117;1315;3052184;-71
2022/05/11 07:03:21;;;;;;;8.00;2.90;;;;;;;13.09;32.67;99406.67;25122;1315;3028577;-65
2022/05/11 07:05:51;;;;;;;14.90;3.20;;;;;;;13.08;32.34;99404.98;25183;1315;3049042;-70
2022/05/11 07:08:19;;;;;;;16.50;2.90;;;;;;;13.16;32.54;99398.65;25140;1315;3027349;-68
2022/05/11 07:16:04;;;;;;;20.00;3.80;;;;;;;13.62;32.34;99387.89;32022;1318;3026319;-64
2022/05/11 07:18:33;;;;;;;25.50;5.40;;;;;;;13.83;31.30;99397.92;25437;1321;3026098;-61
2022/05/11 07:21:03;;;;;;;31.00;4.90;;;;;;;14.01;30.71;99380.94;25497;1321;3026967;-65
2022/05/11 07:23:33;;;;;;;10.00;3.60;;;;;;;14.04;30.48;99383.00;25291;1318;3050691;-65
2022/05/11 07:26:02;;;;;;;9.20;3.40;;;;;;;13.76;30.41;99393.54;25056;1318;3027915;-66
2022/05/11 07:28:31;;;;;;;22.10;4.40;;;;;;;13.88;30.60;99382.95;24968;1318;3246685;-66
2022/05/11 07:31:00;;;;;;;21.60;3.50;;;;;;;13.82;30.90;99381.31;25104;1315;3026116;-67
2022/05/11 07:33:31;;;;;;;12.00;3.60;;;;;;;14.01;30.68;99374.06;25144;1315;3049057;-68
2022/05/11 07:36:00;;;;;;;15.90;3.30;;;;;;;14.09;30.62;99376.27;25168;1315;3026701;-70
2022/05/11 07:38:29;;;;;;;11.50;3.40;;;;;;;14.12;29.40;99378.50;25131;1315;3026492;-66
2022/05/11 07:40:58;;;;;;;14.20;3.60;;;;;;;14.05;28.85;99376.77;25179;1313;3052853;-70
2022/05/11 07:43:28;;;;;;;9.40;3.70;;;;;;;14.11;28.63;99371.54;25168;1315;3030306;-62
2022/05/11 07:45:57;;;;;;;9.60;3.50;;;;;;;14.10;28.20;99377.41;25085;1315;3026643;-69
2022/05/11 07:48:27;;;;;;;12.60;3.70;;;;;;;13.82;28.76;99377.25;25110;1315;3026004;-72
2022/05/11 07:50:56;;;;;;;20.80;4.30;;;;;;;13.87;28.08;99377.58;25128;1315;3028576;-67
2022/05/11 07:53:25;;;;;;;13.10;3.30;;;;;;;13.95;27.48;99379.09;25109;1315;3050592;-67
2022/05/11 08:01:30;;;;;;;10.00;3.00;;;;;;;14.22;26.24;99372.08;25168;1315;3056755;-65
2022/05/11 08:03:59;;;;;;;9.00;2.40;;;;;;;14.24;26.49;99368.43;25149;1315;3026920;-66
2022/05/11 08:06:28;;;;;;;10.80;2.70;;;;;;;14.12;26.43;99371.48;25094;1315;3052877;-65
2022/05/11 08:08:57;;;;;;;15.00;3.40;;;;;;;13.99;26.13;99363.45;25115;1314;3027504;-65
2022/05/11 08:11:26;;;;;;;15.30;4.60;;;;;;;14.24;26.28;99363.83;25148;1315;3053626;-68
2022/05/11 08:13:56;;;;;;;13.90;3.20;;;;;;;14.28;26.60;99359.85;25155;1314;3026043;-63
2022/05/11 08:16:26;;;;;;;14.00;3.70;;;;;;;14.23;26.79;99361.09;25113;1315;3051279;-64
2022/05/11 08:18:55;;;;;;;12.40;3.10;;;;;;;14.46;26.69;99345.03;25160;1315;3027495;-67
2022/05/11 08:21:25;;;;;;;9.30;2.50;;;;;;;14.73;26.23;99346.09;25161;1315;3027882;-68
2022/05/11 08:23:54;;;;;;;11.40;3.10;;;;;;;14.84;26.53;99347.70;25148;1315;3053094;-65
2022/05/11 08:26:23;;;;;;;12.80;3.40;;;;;;;14.95;26.29;99336.44;25136;1315;3026444;-66
2022/05/11 08:28:53;;;;;;;11.80;3.50;;;;;;;15.02;25.91;99331.48;25140;1315;3026648;-65
2022/05/11 08:34:09;;;;;;;10.90;3.50;;;;;;;14.95;26.01;99334.16;25126;1315;3051806;-67
2022/05/11 08:36:40;;;;;;;14.20;4.00;;;;;;;15.03;26.43;99332.24;25100;1315;3026611;-67
2022/05/11 08:39:09;;;;;;;8.70;3.20;;;;;;;14.95;26.13;99333.48;25127;1315;3026537;-67
2022/05/11 08:41:48;;;;;;;11.70;3.40;;;;;;;14.89;26.10;99329.90;25098;1315;3053996;-64
2022/05/11 08:44:22;;;;;;;8.60;3.10;;;;;;;15.07;26.22;99322.41;25121;1315;3053088;-66
2022/05/11 08:47:00;;;;;;;8.10;3.20;;;;;;;15.30;25.84;99311.15;25175;1314;3059368;-66
2022/05/11 08:49:50;;;;;;;11.30;3.40;;;;;;;15.48;25.81;99309.70;25140;1315;3052664;-66
2022/05/11 08:52:50;;;;;;;12.80;3.20;;;;;;;15.58;25.61;99310.84;25126;1315;3055942;-71
2022/05/11 08:55:34;;;;;;;11.20;3.30;;;;;;;15.47;25.32;99308.89;25122;1315;3049488;-66
2022/05/11 08:58:06;;;;;;;16.90;3.90;;;;;;;15.42;25.50;99317.77;25083;1315;3069777;-64
2022/05/11 09:00:39;;;;;;;7.60;3.00;;;;;;;15.37;25.44;99303.05;25151;1315;3026666;-66
2022/05/11 09:03:26;;;;;;;10.30;3.70;;;;;;;15.38;25.62;99307.16;25094;1315;3027478;-67
2022/05/11 09:05:56;;;;;;;21.90;5.20;;;;;;;15.38;25.88;99298.85;25118;1315;3053149;-67
2022/05/11 09:08:25;;;;;;;14.70;3.70;;;;;;;15.49;25.83;99288.45;25125;1315;3029571;-68
2022/05/11 09:10:54;;;;;;;12.40;3.20;;;;;;;15.72;25.46;99293.88;25144;1315;3026915;-64
2022/05/11 09:13:26;;;;;;;11.10;4.00;;;;;;;15.85;25.09;99289.15;25074;1315;3054382;-68
2022/05/11 09:16:00;;;;;;;13.60;3.10;;;;;;;16.09;24.85;99285.71;25158;1315;3026353;-66
2022/05/11 09:18:30;;;;;;;17.20;3.30;;;;;;;16.13;24.72;99293.80;25059;1315;3052136;-64
2022/05/11 09:21:02;;;;;;;12.70;3.00;;;;;;;15.95;24.72;99284.73;25144;1315;3026689;-69
2022/05/11 09:23:36;;;;;;;10.40;3.30;;;;;;;15.76;24.92;99300.52;25091;1315;3056983;-68
2022/05/11 09:26:10;;;;;;;15.50;3.60;;;;;;;15.88;24.67;99286.96;25115;1315;3051950;-68
2022/05/11 09:28:41;;;;;;;13.00;4.10;;;;;;;15.98;24.95;99287.15;25156;1313;3054549;-63
2022/05/11 09:31:13;;;;;;;14.10;3.40;;;;;;;16.14;24.72;99293.39;25199;1315;3026494;-67
2022/05/11 09:33:59;;;;;;;11.40;2.90;;;;;;;16.01;24.66;99291.65;25157;1315;3026797;-67
2022/05/11 09:36:35;;;;;;;11.00;3.00;;;;;;;16.10;24.54;99286.45;25137;1315;3049225;-67
2022/05/11 09:39:13;;;;;;;12.50;3.20;;;;;;;16.22;24.67;99285.63;25199;1315;3054779;-66
2022/05/11 09:41:49;;;;;;;10.10;3.20;;;;;;;16.33;24.80;99295.22;25172;1314;3052107;-70
2022/05/11 09:44:23;;;;;;;8.30;3.30;;;;;;;16.40;24.98;99285.66;25187;1315;3056593;-71
2022/05/11 09:46:53;;;;;;;10.10;3.40;;;;;;;16.56;24.95;99286.94;25201;1314;3052669;-70
2022/05/11 09:49:22;;;;;;;12.70;3.50;;;;;;;16.67;24.57;99279.87;25160;1315;3028518;-67
2022/05/11 09:51:55;;;;;;;17.80;3.20;;;;;;;16.60;24.93;99277.73;25138;1315;3026961;-70
2022/05/11 09:54:29;;;;;;;14.70;3.60;;;;;;;16.53;25.18;99285.93;25144;1315;3050760;-63
2022/05/11 09:57:17;;;;;;;6.90;3.10;;;;;;;16.70;24.63;99284.27;25191;1315;3053289;-66
2022/05/11 09:59:50;;;;;;;11.10;3.40;;;;;;;16.61;24.68;99279.05;25204;1315;3050323;-63
2022/05/11 10:02:35;;;;;;;19.60;3.70;;;;;;;16.68;24.88;99273.12;25138;1315;3069507;-69
2022/05/11 10:05:08;;;;;;;15.10;4.20;;;;;;;17.04;25.39;99269.43;25146;1315;3048984;-66
2022/05/11 10:08:01;;;;;;;17.30;3.40;;;;;;;16.87;24.50;99285.46;25192;1313;3057295;-70
2022/05/11 10:10:50;;;;;;;9.80;3.20;;;;;;;16.84;24.50;99272.01;25196;1315;3055322;-65
2022/05/11 10:13:40;;;;;;;17.70;5.60;;;;;;;16.79;25.34;99264.92;25217;1315;3055767;-68
2022/05/11 10:22:29;;;;;;;15.00;4.30;;;;;;;17.24;24.93;99270.02;25075;1315;3053759;-68
2022/05/11 10:25:02;;;;;;;15.90;4.20;;;;;;;17.20;25.56;99275.33;25177;1314;3072587;-66
2022/05/11 10:27:40;;;;;;;15.10;4.10;;;;;;;16.93;25.61;99280.84;25190;1315;3047830;-66
2022/05/11 10:30:23;;;;;;;23.40;4.40;;;;;;;17.07;25.59;99268.93;25162;1315;3052645;-66
2022/05/11 10:33:13;;;;;;;17.00;4.70;;;;;;;17.38;25.38;99265.55;25186;1315;3052207;-67
2022/05/11 10:36:03;;;;;;;10.70;3.70;;;;;;;17.38;25.27;99268.24;25104;1315;3058169;-67
2022/05/11 10:38:41;;;;;;;11.90;4.00;;;;;;;17.37;25.19;99268.66;25166;1315;3049818;-66
2022/05/11 10:41:21;;;;;;;20.30;4.10;;;;;;;17.50;24.91;99266.63;25163;1315;3055518;-69
2022/05/11 10:44:01;;;;;;;10.20;3.40;;;;;;;17.41;24.47;99274.28;25161;1315;3050722;-69
2022/05/11 10:46:36;;;;;;;17.10;4.50;;;;;;;17.39;24.66;99272.06;25161;1315;3072615;-66
2022/05/11 10:49:05;;;;;;;16.30;4.20;;;;;;;17.38;24.67;99263.33;25210;1315;3052303;-67
2022/05/11 10:51:43;;;;;;;11.30;4.00;;;;;;;17.58;24.55;99264.06;25172;1315;3026675;-65
2022/05/11 10:54:33;;;;;;;12.70;4.60;;;;;;;17.64;24.48;99260.94;25198;1315;3054921;-67
2022/05/11 10:57:28;;;;;;;22.50;5.10;;;;;;;17.85;24.20;99260.17;25153;1315;3059077;-66
2022/05/11 11:00:08;;;;;;;13.40;4.40;;;;;;;17.87;23.98;99263.00;25224;1315;3050966;-67
2022/05/11 11:03:01;;;;;;;19.70;4.30;;;;;;;17.40;24.41;99271.77;25184;1315;3052850;-66
2022/05/11 11:05:45;;;;;;;14.70;5.40;;;;;;;17.64;24.25;99257.36;25275;1315;3052945;-69
2022/05/11 11:08:27;;;;;;;20.20;4.70;;;;;;;17.84;24.08;99277.97;25193;1315;3068668;-68
2022/05/11 11:11:07;;;;;;;15.20;3.90;;;;;;;17.71;24.01;99263.27;25151;1315;3051982;-68
2022/05/11 11:14:01;;;;;;;23.20;4.80;;;;;;;17.77;24.07;99264.44;25180;1315;3054962;-71
2022/05/11 11:16:31;;;;;;;;;;;;;;;17.76;24.13;99260.98;25147;1315;3054902;-65
2022/05/11 11:19:01;;;;;;;16.90;4.40;;;;;;;17.90;24.33;99260.58;25181;1315;3026891;-64
2022/05/11 11:21:30;;;;;;;24.70;4.40;;;;;;;18.10;23.73;99248.98;25122;1315;3026242;-65
2022/05/11 11:24:13;;;;;;;13.20;4.80;;;;;;;18.37;23.26;99250.52;25111;1315;3026646;-69
2022/05/11 11:26:50;;;;;;;14.30;4.30;;;;;;;18.52;22.97;99247.96;25135;1315;3059576;-65
2022/05/11 11:29:37;;;;;;;25.80;4.60;;;;;;;18.41;23.04;99256.52;25122;1315;3053930;-67
2022/05/11 11:32:07;;;;;;;19.00;4.60;;;;;;;18.31;22.80;99245.55;25183;1315;3052526;-65
2022/05/11 11:34:44;;;;;;;21.00;4.50;;;;;;;18.51;22.90;99244.72;25183;1314;3026474;-69
2022/05/11 11:37:32;;;;;;;26.50;4.40;;;;;;;18.73;22.65;99243.42;25129;1315;3070944;-64
2022/05/11 11:40:13;;;;;;;11.20;4.50;;;;;;;18.42;22.66;99255.84;25177;1315;3048962;-67
2022/05/11 11:42:44;;;;;;;13.80;4.70;;;;;;;18.33;23.26;99240.03;25125;1315;3055406;-64
2022/05/11 11:45:29;;;;;;;20.10;4.60;;;;;;;18.56;23.00;99239.66;25129;1315;3027047;-65
2022/05/11 11:48:38;;;;;;;18.10;4.50;;;;;;;18.78;22.51;99233.89;25177;1315;3055172;-68
2022/05/11 11:51:11;;;;;;;16.30;5.50;;;;;;;18.85;22.62;99241.55;24950;1320;3049571;-66
2022/05/11 11:53:55;;;;;;;18.20;5.60;;;;;;;18.88;22.42;99243.11;25005;1320;3026412;-65
2022/05/11 11:56:24;;;;;;;19.80;4.60;;;;;;;18.92;22.02;99242.64;25095;1314;3051596;-66
2022/05/11 11:59:30;;;;;;;25.20;5.30;;;;;;;18.82;22.30;99247.68;25109;1315;3026721;-63
2022/05/11 12:02:38;;;;;;;16.80;4.60;;;;;;;18.81;22.33;99250.63;25180;1315;3055830;-70
2022/05/11 12:05:37;;;;;;;14.30;4.70;;;;;;;18.74;22.25;99250.42;25577;1315;3051418;-63
2022/05/11 12:16:57;;;;;;;19.40;4.80;;;;;;;18.94;22.30;99235.36;25117;1315;3055585;-65
2022/05/11 12:19:28;;;;;;;21.30;4.40;;;;;;;19.29;21.78;99230.66;25044;1315;3030134;-63
2022/05/11 12:22:22;;;;;;;12.00;4.10;;;;;;;19.13;21.75;99242.38;25086;1315;3026159;-64
2022/05/11 12:25:11;;;;;;;13.00;4.30;;;;;;;18.93;21.90;99241.67;25130;1315;3054425;-67
2022/05/11 12:27:40;;;;;;;17.70;4.80;;;;;;;19.07;21.98;99243.92;25072;1315;3052033;-68